Accueil
METAR-TAF:

METAR-TAF

Aéroports :

Base aérienne 118 Mont-de-Marsan

Mont-De-Marsan, France

latitude: 43-55N, longitude: 000-30W, altitude: 62 m

Observation

Le bulletin a été fait il y a 26 minutes, à 16:00 UTC
Vent 5 kt de sud-ouest, variant entre sud et ouest
Température 23°C
Humidité 61%
Pression 1018 hPa
Visibilité 10 km ou plus
Quelques nuages à une hauteur de 4000 ft
Nuages fragmentés à une hauteur de 4600 ft
Ciel couvert à une hauteur de 5400 ft

METAR: LFBM 281600Z AUTO 23005KT 190V280 9999 FEW040 BKN046 OVC054 23/15 Q1018

Heure: 18:26 (16:26 UTC)

Prévision

Le bulletin a été fait il y a 2 heures et 26 minutes, à 14:00 UTC
Prévision valable du 28 à 15 UTC au 29 à 15 UTC
Vent 4 kt de sud-ouest
Visibilité 10 km ou plus
Nuages épars à une hauteur de 4000 ft

TAF: LFBM 281400Z 2815/2915 22004KT 9999 SCT040

Observations et prévisions météorologiques de plus de 4000 aéroports (messages METAR et TAF).

Les stations disponibles sont représentées par des disques jaunes et rouges sur la carte.

Passer la souris dessus pour voir le nom de la station.

Cliquer dessus pour voir les observations et prévisions météorologiques.

Pour changer de carte: cliquez sur les boutons verts avec une croix noire pour zoomer, sur le bouton vert avec un tiret pour effectuer un zoom arrière, ou sur les flèches vertes pour les cartes adjacentes.


METAR-TAF: